Time;durP1;ratioP1;P1;durP2;ratioP2;P2;SDS_P1;SDS_P2;PMS_P1;PMS_P2;Temp;Humidity;BMP_temperature;BMP_pressure;BME280_temperature;BME280_humidity;BME280_pressure;Samples;Min_cycle;Max_cycle;Signal;HPM_P1;HPM_P2
2022/12/31 02:07:05;;;;;;;0.68;0.68;;;;;;;4.43;100.00;100504.72;6121268;23;20033;-94
2022/12/31 02:09:32;;;;;;;3.78;2.50;;;;;;;4.39;100.00;100481.16;6073300;23;20056;-94
2022/12/31 02:11:58;;;;;;;1.77;1.67;;;;;;;4.40;100.00;100483.53;6097169;23;20006;-94
2022/12/31 02:14:33;;;;;;;1.77;1.67;;;;;;;4.30;100.00;100464.22;6097616;23;20064;-93
2022/12/31 02:17:26;;;;;;;0.82;0.82;;;;;;;4.46;100.00;100486.69;6072895;23;20198;-94
2022/12/31 02:20:17;;;;;;;2.67;2.00;;;;;;;4.48;100.00;100490.63;6123929;23;20060;-94
2022/12/31 02:23:20;;;;;;;2.45;1.65;;;;;;;4.57;100.00;100493.78;6096401;23;20027;-94
2022/12/31 02:26:22;;;;;;;1.52;1.38;;;;;;;4.56;100.00;100488.69;6097096;23;20029;-94
2022/12/31 02:28:50;;;;;;;7.30;2.08;;;;;;;4.60;100.00;100495.78;6073982;23;20013;-94
2022/12/31 02:31:31;;;;;;;1.05;0.98;;;;;;;4.53;100.00;100490.25;6097023;23;20538;-94
2022/12/31 02:34:00;;;;;;;1.77;1.67;;;;;;;4.63;100.00;100506.00;6096745;23;20014;-95
2022/12/31 02:36:29;;;;;;;2.72;2.53;;;;;;;4.62;100.00;100503.63;6096785;23;20010;-94
2022/12/31 02:38:55;;;;;;;1.40;1.20;;;;;;;4.49;100.00;100481.19;6073033;23;20354;-93
2022/12/31 02:44:23;;;;;;;;;;;;;;;4.63;100.00;100517.00;6101604;23;20020;-95
2022/12/31 02:46:59;;;;;;;1.20;1.10;;;;;;;4.61;100.00;100524.06;6097839;23;19917;-93
2022/12/31 02:49:56;;;;;;;4.10;1.30;;;;;;;4.61;100.00;100530.31;6073017;23;20092;-94
2022/12/31 02:52:27;;;;;;;0.17;0.17;;;;;;;4.59;100.00;100535.44;6097339;23;20018;-93
2022/12/31 02:55:06;;;;;;;1.45;1.35;;;;;;;4.57;100.00;100539.75;6123422;23;20093;-94
2022/12/31 02:57:55;;;;;;;3.10;2.15;;;;;;;4.57;100.00;100543.25;6049034;23;20017;-93
2022/12/31 03:03:05;;;;;;;2.92;2.42;;;;;;;4.53;100.00;100542.44;6101190;23;20006;-94
2022/12/31 03:05:35;;;;;;;1.30;1.13;;;;;;;4.55;100.00;100545.59;6073061;23;20021;-93
2022/12/31 03:08:01;;;;;;;4.05;2.38;;;;;;;4.59;100.00;100545.63;6097676;23;20018;-93
2022/12/31 03:10:27;;;;;;;2.33;2.17;;;;;;;4.58;100.00;100530.31;6073905;23;20033;-94
2022/12/31 03:12:52;;;;;;;1.73;1.63;;;;;;;4.43;100.00;100510.22;6073299;23;20037;-95
2022/12/31 03:15:44;;;;;;;1.42;1.33;;;;;;;4.57;100.00;100531.50;6049236;23;20072;-94
2022/12/31 03:18:15;;;;;;;0.82;0.82;;;;;;;4.58;100.00;100538.53;6066607;23;20020;-93
2022/12/31 03:23:32;;;;;;;1.92;1.83;;;;;;;4.63;100.00;100541.72;6077495;23;20018;-93
2022/12/31 03:25:58;;;;;;;2.97;2.72;;;;;;;4.56;100.00;100535.41;6073737;23;20021;-94
2022/12/31 03:28:26;;;;;;;1.25;1.08;;;;;;;4.54;100.00;100516.56;6098297;23;20018;-93
2022/12/31 03:30:54;;;;;;;0.82;0.82;;;;;;;4.50;100.00;100525.94;6075299;23;20025;-93
2022/12/31 03:33:21;;;;;;;1.85;1.75;;;;;;;4.61;100.00;100546.81;6074860;23;20399;-94
2022/12/31 03:35:48;;;;;;;1.50;1.40;;;;;;;4.58;100.00;100541.28;6074764;23;20482;-94
2022/12/31 03:38:14;;;;;;;0.75;0.75;;;;;;;4.41;100.00;100512.53;6075698;23;20435;-94
2022/12/31 03:40:43;;;;;;;1.73;1.63;;;;;;;4.55;100.00;100518.13;6051339;23;20025;-94
2022/12/31 03:43:09;;;;;;;2.13;1.50;;;;;;;4.64;100.00;100523.28;6075462;23;20018;-93
2022/12/31 03:45:35;;;;;;;1.50;1.40;;;;;;;4.58;100.00;100503.63;6051252;23;20037;-94
2022/12/31 03:48:03;;;;;;;2.03;1.55;;;;;;;4.88;100.00;100541.06;6075287;23;20343;-93
2022/12/31 03:50:29;;;;;;;1.70;1.45;;;;;;;4.89;100.00;100526.94;6050288;23;20108;-93
2022/12/31 03:52:55;;;;;;;2.20;2.00;;;;;;;4.84;100.00;100523.75;6098794;23;20434;-94
2022/12/31 03:55:21;;;;;;;1.35;1.25;;;;;;;4.89;100.00;100542.63;6099519;23;20013;-94
2022/12/31 03:57:46;;;;;;;2.45;1.60;;;;;;;4.91;100.00;100540.28;6099203;23;20402;-95
2022/12/31 04:00:14;;;;;;;1.73;1.63;;;;;;;5.00;100.00;100548.97;6052146;23;20338;-94
2022/12/31 04:02:40;;;;;;;1.73;1.35;;;;;;;5.00;100.00;100566.25;6098206;23;20036;-94
2022/12/31 04:05:06;;;;;;;1.30;1.20;;;;;;;4.97;100.00;100555.25;6075070;23;20018;-94
2022/12/31 04:07:32;;;;;;;1.80;1.45;;;;;;;4.92;100.00;100550.09;6098788;23;20327;-92
2022/12/31 04:09:58;;;;;;;1.67;1.55;;;;;;;4.96;100.00;100568.19;6099603;23;20017;-93
2022/12/31 04:12:23;;;;;;;2.67;2.47;;;;;;;4.95;100.00;100557.56;6073289;23;20362;-94
2022/12/31 04:14:49;;;;;;;1.40;1.30;;;;;;;5.01;100.00;100558.78;6075693;23;20041;-93
2022/12/31 04:17:15;;;;;;;2.05;1.85;;;;;;;4.87;100.00;100545.75;6074877;23;20076;-94
2022/12/31 04:19:40;;;;;;;3.92;1.75;;;;;;;4.98;100.00;100574.09;6051693;23;20022;-93
2022/12/31 04:22:06;;;;;;;0.77;0.75;;;;;;;4.86;100.00;100549.69;6051300;23;20010;-93
2022/12/31 04:24:32;;;;;;;1.67;1.58;;;;;;;4.95;100.00;100585.84;6099207;23;20450;-95
2022/12/31 04:26:58;;;;;;;3.78;1.38;;;;;;;4.97;100.00;100582.72;6074736;23;20021;-95
2022/12/31 04:29:23;;;;;;;0.85;0.85;;;;;;;4.96;100.00;100570.16;6071884;23;20481;-94
2022/12/31 04:31:49;;;;;;;1.88;1.77;;;;;;;4.94;100.00;100578.78;6075090;23;20037;-94
2022/12/31 04:34:15;;;;;;;1.75;1.65;;;;;;;4.87;100.00;100572.47;6075028;23;20013;-94
2022/12/31 04:36:40;;;;;;;0.65;0.65;;;;;;;5.00;100.00;100598.44;6051476;23;20002;-94
2022/12/31 04:39:06;;;;;;;3.03;1.95;;;;;;;4.97;100.00;100605.53;6074604;23;20469;-95
2022/12/31 04:41:31;;;;;;;4.20;1.55;;;;;;;4.94;100.00;100603.50;6098695;23;20359;-93
2022/12/31 04:43:57;;;;;;;1.80;1.70;;;;;;;4.90;100.00;100594.47;6098846;23;20016;-94
2022/12/31 04:46:26;;;;;;;0.68;0.68;;;;;;;4.99;100.00;100605.13;6050422;23;20017;-93
2022/12/31 04:48:51;;;;;;;5.78;2.40;;;;;;;4.76;100.00;100571.63;6051364;23;20026;-94
2022/12/31 04:51:17;;;;;;;1.42;1.33;;;;;;;4.74;100.00;100569.25;6049878;23;20029;-93
2022/12/31 04:53:43;;;;;;;2.10;1.95;;;;;;;4.98;100.00;100600.78;6074896;23;20446;-94
2022/12/31 04:56:09;;;;;;;3.35;3.10;;;;;;;5.03;100.00;100608.66;6073894;23;20014;-94
2022/12/31 04:58:36;;;;;;;8.30;2.65;;;;;;;4.83;100.00;100582.66;6074821;23;20438;-93
2022/12/31 05:01:02;;;;;;;3.78;1.92;;;;;;;4.91;100.00;100611.75;6049677;23;20401;-93
2022/12/31 05:03:27;;;;;;;3.92;1.75;;;;;;;4.75;100.00;100597.53;6073913;23;20061;-94
2022/12/31 05:05:58;;;;;;;3.08;2.58;;;;;;;4.87;100.00;100627.44;6050589;23;20014;-94
2022/12/31 05:08:23;;;;;;;0.40;0.40;;;;;;;4.72;100.00;100606.53;6074558;23;20018;-94
2022/12/31 05:10:49;;;;;;;2.30;1.77;;;;;;;4.84;100.00;100618.00;6074540;23;20013;-93
2022/12/31 05:13:15;;;;;;;1.33;1.23;;;;;;;4.87;100.00;100616.44;6050233;23;20018;-95
2022/12/31 05:15:41;;;;;;;4.28;2.03;;;;;;;4.72;100.00;100596.34;6073505;23;20030;-94
2022/12/31 05:18:07;;;;;;;0.28;0.28;;;;;;;4.66;100.00;100611.59;6050262;23;20108;-93
2022/12/31 05:20:33;;;;;;;3.55;2.20;;;;;;;4.49;100.00;100599.31;6048644;23;20013;-93
2022/12/31 05:22:58;;;;;;;1.83;1.67;;;;;;;4.67;100.00;100624.97;6049794;23;20014;-94
2022/12/31 05:25:24;;;;;;;0.52;0.52;;;;;;;4.76;100.00;100641.13;6074167;23;20017;-94
2022/12/31 05:27:50;;;;;;;3.90;2.92;;;;;;;4.65;100.00;100632.78;6098005;23;20014;-93
2022/12/31 05:30:17;;;;;;;1.63;1.52;;;;;;;4.75;100.00;100636.78;6074318;23;20430;-94
2022/12/31 05:32:43;;;;;;;1.33;1.30;;;;;;;4.66;100.00;100622.59;6050529;23;20038;-93
2022/12/31 05:35:09;;;;;;;2.83;2.08;;;;;;;4.78;100.00;100657.22;6098366;23;20021;-95
2022/12/31 05:37:35;;;;;;;0.88;0.88;;;;;;;4.75;100.00;100664.28;6074631;23;20048;-93
2022/12/31 05:40:01;;;;;;;1.13;1.02;;;;;;;4.69;100.00;100661.09;6074393;23;19998;-94
2022/12/31 05:42:26;;;;;;;1.75;1.65;;;;;;;4.68;100.00;100670.53;6073974;23;20561;-93
2022/12/31 05:44:52;;;;;;;2.20;2.00;;;;;;;4.52;100.00;100656.28;6098621;23;20068;-93
2022/12/31 05:47:18;;;;;;;0.68;0.60;;;;;;;4.44;100.00;100643.66;6073850;23;20350;-93
2022/12/31 05:49:43;;;;;;;1.27;1.23;;;;;;;4.37;100.00;100646.31;6049667;23;20058;-93
2022/12/31 05:52:09;;;;;;;1.48;1.42;;;;;;;4.35;100.00;100643.19;6097987;23;20037;-94
2022/12/31 05:54:35;;;;;;;1.10;1.08;;;;;;;4.49;100.00;100646.03;6073957;23;20010;-93
2022/12/31 05:57:02;;;;;;;1.60;1.50;;;;;;;4.58;100.00;100682.22;6073744;23;20040;-94
2022/12/31 05:59:28;;;;;;;2.92;2.58;;;;;;;4.58;100.00;100682.22;6073535;23;20064;-94
2022/12/31 06:01:54;;;;;;;2.22;2.03;;;;;;;4.35;100.00;100651.41;6071264;23;20006;-95
2022/12/31 06:04:19;;;;;;;4.50;3.13;;;;;;;4.40;100.00;100653.03;6048666;23;20437;-93
2022/12/31 06:06:45;;;;;;;1.58;1.50;;;;;;;4.41;100.00;100654.63;6049421;23;20022;-93
2022/12/31 06:09:11;;;;;;;2.15;1.70;;;;;;;4.55;100.00;100679.44;6072951;23;20017;-94
2022/12/31 06:11:37;;;;;;;2.28;2.08;;;;;;;4.48;100.00;100671.16;6072154;23;20470;-94
2022/12/31 06:14:03;;;;;;;1.25;1.15;;;;;;;4.57;100.00;100697.09;6073006;23;20014;-94
2022/12/31 06:16:28;;;;;;;2.63;2.42;;;;;;;4.33;100.00;100664.72;6048086;23;20060;-93
2022/12/31 06:18:54;;;;;;;2.17;2.05;;;;;;;4.23;100.00;100644.25;6049651;23;20481;-93
2022/12/31 06:21:20;;;;;;;1.05;1.05;;;;;;;4.38;100.00;100669.88;6049524;23;20074;-94
2022/12/31 06:23:47;;;;;;;5.05;3.90;;;;;;;4.40;100.00;100688.75;6073909;23;20037;-93
2022/12/31 06:26:13;;;;;;;2.47;2.00;;;;;;;4.28;100.00;100681.56;6096746;23;20013;-93
2022/12/31 06:28:38;;;;;;;2.42;2.22;;;;;;;4.33;100.00;100702.41;6050175;23;20022;-94
2022/12/31 06:31:07;;;;;;;2.80;2.60;;;;;;;4.27;100.00;100701.97;6049520;23;20017;-94
2022/12/31 06:33:33;;;;;;;1.38;1.30;;;;;;;4.20;100.00;100685.44;6049345;23;20010;-93
2022/12/31 06:36:00;;;;;;;4.32;1.90;;;;;;;4.13;100.00;100690.81;6072699;23;20092;-94
2022/12/31 06:38:28;;;;;;;6.18;3.50;;;;;;;4.03;100.00;100683.28;6047606;23;20006;-93
2022/12/31 06:40:53;;;;;;;4.45;1.85;;;;;;;4.06;100.00;100702.53;6094420;23;20069;-93
2022/12/31 06:43:20;;;;;;;0.50;0.50;;;;;;;4.12;100.00;100703.00;6071873;23;20010;-93
2022/12/31 06:45:45;;;;;;;2.40;1.55;;;;;;;4.19;100.00;100692.06;6095239;23;20292;-93
2022/12/31 06:48:11;;;;;;;3.72;3.42;;;;;;;4.26;100.00;100713.31;6072934;23;20025;-93
2022/12/31 06:50:37;;;;;;;1.98;1.73;;;;;;;4.29;100.00;100718.06;6047228;23;20014;-94
2022/12/31 06:53:03;;;;;;;1.50;1.40;;;;;;;4.19;100.00;100708.56;6048786;23;20010;-94
2022/12/31 06:55:29;;;;;;;1.42;1.30;;;;;;;4.30;100.00;100733.34;6048922;23;20407;-94
2022/12/31 06:57:55;;;;;;;0.85;0.85;;;;;;;4.17;100.00;100732.84;6071982;23;20022;-94
2022/12/31 07:00:21;;;;;;;1.55;1.45;;;;;;;4.27;100.00;100745.91;6049008;23;20391;-93
2022/12/31 07:03:05;;;;;;;3.33;2.67;;;;;;;4.39;100.00;100748.38;6048095;23;20017;-94
2022/12/31 07:05:36;;;;;;;;;;;;;;;4.46;100.00;100750.38;6071880;23;20021;-93
2022/12/31 07:08:11;;;;;;;2.45;1.50;;;;;;;4.36;100.00;100720.88;6072887;23;19993;-94
2022/12/31 07:10:54;;;;;;;6.07;3.28;;;;;;;4.55;100.00;100770.09;6094657;23;20014;-94
2022/12/31 07:13:45;;;;;;;1.95;1.15;;;;;;;4.51;100.00;100775.56;6048907;23;20045;-93
2022/12/31 07:16:28;;;;;;;3.78;3.40;;;;;;;4.56;100.00;100761.50;6048419;23;20203;-93
2022/12/31 07:19:14;;;;;;;0.57;0.57;;;;;;;4.76;100.00;100780.50;6095871;23;20006;-93
2022/12/31 07:21:42;;;;;;;3.60;1.95;;;;;;;4.75;100.00;100768.72;6095590;23;20021;-94
2022/12/31 07:24:09;;;;;;;2.53;2.28;;;;;;;4.83;100.00;100783.31;6070130;23;20002;-94
2022/12/31 07:26:40;;;;;;;0.45;0.45;;;;;;;4.88;100.00;100780.22;6095912;23;20334;-94
2022/12/31 07:29:27;;;;;;;3.78;2.70;;;;;;;4.91;100.00;100782.19;6096260;23;20073;-93
2022/12/31 07:32:02;;;;;;;0.77;0.77;;;;;;;4.93;100.00;100788.13;6120826;23;20006;-94
2022/12/31 07:34:45;;;;;;;3.60;2.30;;;;;;;4.86;100.00;100782.53;6121948;23;20014;-93
2022/12/31 07:37:20;;;;;;;2.92;2.50;;;;;;;4.95;100.00;100788.50;6072143;23;20022;-92
2022/12/31 07:39:52;;;;;;;3.10;2.80;;;;;;;4.98;100.00;100798.75;6047139;23;20017;-94
2022/12/31 07:42:23;;;;;;;4.13;3.65;;;;;;;4.94;100.00;100795.97;6095713;23;20081;-92
2022/12/31 07:45:00;;;;;;;6.90;6.30;;;;;;;5.00;100.00;100812.91;6072841;23;20009;-92
2022/12/31 07:47:27;;;;;;;5.38;4.82;;;;;;;4.90;100.00;100775.09;6048396;23;20073;-93
2022/12/31 07:49:54;;;;;;;5.05;4.65;;;;;;;5.11;100.00;100803.56;6048836;23;20010;-92
2022/12/31 07:52:20;;;;;;;4.35;3.30;;;;;;;5.14;100.00;100808.31;6073088;23;20021;-93
2022/12/31 07:54:46;;;;;;;2.53;2.33;;;;;;;5.23;100.00;100816.22;6097115;23;20509;-93
2022/12/31 07:57:13;;;;;;;3.90;2.35;;;;;;;5.35;100.00;100817.88;6073922;23;20376;-93
2022/12/31 07:59:50;;;;;;;2.88;2.50;;;;;;;5.48;100.00;100817.19;6048910;23;20025;-93
2022/12/31 08:02:38;;;;;;;2.25;2.10;;;;;;;5.61;100.00;100823.16;6047561;23;20022;-93
2022/12/31 08:05:17;;;;;;;2.13;1.52;;;;;;;5.64;100.00;100823.19;6071725;23;20014;-93
2022/12/31 08:08:34;;;;;;;1.75;1.65;;;;;;;5.80;100.00;100833.09;6048747;23;20053;-93
2022/12/31 08:11:15;;;;;;;1.83;1.08;;;;;;;5.82;100.00;100839.81;5995472;23;20105;-93
2022/12/31 08:13:41;;;;;;;2.28;2.10;;;;;;;5.78;100.00;100828.00;6096903;23;20096;-94
2022/12/31 08:16:10;;;;;;;1.63;1.52;;;;;;;5.87;100.00;100833.94;6074313;23;20097;-93
2022/12/31 08:18:36;;;;;;;2.92;2.58;;;;;;;5.73;100.00;100811.84;6073306;23;20438;-93
2022/12/31 08:21:25;;;;;;;2.85;2.70;;;;;;;5.83;100.00;100832.31;6049377;23;20021;-92
2022/12/31 08:24:09;;;;;;;1.67;1.58;;;;;;;6.00;100.00;100853.69;6097610;23;20370;-92
2022/12/31 08:26:58;;;;;;;2.33;2.00;;;;;;;6.03;100.00;100847.41;6097743;23;20018;-93
2022/12/31 08:29:47;;;;;;;2.35;2.15;;;;;;;5.77;100.00;100789.81;6073282;23;20014;-92
2022/12/31 08:32:21;;;;;;;1.60;1.50;;;;;;;6.15;100.00;100860.81;6073625;23;20016;-92
2022/12/31 08:35:21;;;;;;;2.50;1.83;;;;;;;6.15;100.00;100876.59;6123818;23;20454;-92
2022/12/31 08:37:52;;;;;;;2.83;2.63;;;;;;;6.16;100.00;100843.13;6124224;23;20021;-92
2022/12/31 08:40:27;;;;;;;1.65;1.00;;;;;;;6.35;100.00;100840.03;6049763;23;20021;-92
2022/12/31 08:43:14;;;;;;;3.90;3.60;;;;;;;6.52;100.00;100855.84;6074923;23;20014;-94
2022/12/31 08:45:51;;;;;;;1.77;1.50;;;;;;;6.75;100.00;100868.53;6074012;23;20116;-93
2022/12/31 08:48:20;;;;;;;1.42;1.33;;;;;;;6.80;100.00;100862.59;6098274;23;20021;-94
2022/12/31 08:50:46;;;;;;;2.83;2.47;;;;;;;6.77;100.00;100833.06;6076438;23;20010;-93
2022/12/31 08:53:12;;;;;;;1.83;1.58;;;;;;;6.94;100.00;100862.63;6050739;23;20024;-93
2022/12/31 08:55:37;;;;;;;1.08;1.08;;;;;;;6.92;100.00;100857.50;6075395;23;20002;-95
2022/12/31 08:58:26;;;;;;;1.50;1.40;;;;;;;7.04;100.00;100853.56;6049165;23;20062;-94
2022/12/31 09:00:56;;;;;;;1.88;1.77;;;;;;;7.03;100.00;100843.72;6072129;23;20018;-93
2022/12/31 09:03:24;;;;;;;2.55;2.38;;;;;;;7.16;100.00;100864.22;6047776;23;20042;-94
2022/12/31 09:05:51;;;;;;;3.28;3.03;;;;;;;7.20;100.00;100859.47;6072871;23;20092;-93
2022/12/31 09:08:27;;;;;;;5.00;3.70;;;;;;;7.24;100.00;100856.75;6097335;23;20018;-94
2022/12/31 09:10:57;;;;;;;4.82;4.13;;;;;;;7.20;100.00;100859.47;6048633;23;20486;-93
2022/12/31 09:13:32;;;;;;;5.43;1.80;;;;;;;7.29;100.00;100870.94;6095624;23;20045;-95
2022/12/31 09:16:03;;;;;;;1.80;1.70;;;;;;;7.33;100.00;100874.47;6069982;23;20018;-93
2022/12/31 09:18:29;;;;;;;3.85;3.53;;;;;;;7.39;100.00;100872.91;6071990;23;20032;-93
2022/12/31 09:20:55;;;;;;;2.95;2.63;;;;;;;7.32;100.00;100850.06;6049645;23;20099;-93
2022/12/31 09:23:21;;;;;;;2.97;2.40;;;;;;;7.20;100.00;100826.38;6074365;23;20037;-93
2022/12/31 09:25:59;;;;;;;3.88;1.80;;;;;;;7.55;100.00;100864.22;6073566;23;20018;-92
2022/12/31 09:28:57;;;;;;;2.28;1.98;;;;;;;7.56;100.00;100848.44;6050496;23;20038;-93
2022/12/31 09:31:50;;;;;;;1.38;0.80;;;;;;;7.38;100.00;100815.34;6097936;23;20060;-95
2022/12/31 09:34:28;;;;;;;1.67;1.58;;;;;;;7.32;100.00;100820.44;6076759;23;20017;-94
2022/12/31 09:37:02;;;;;;;2.95;2.65;;;;;;;7.48;100.00;100831.88;6075077;23;20014;-94
2022/12/31 09:39:41;;;;;;;1.50;1.33;;;;;;;7.65;100.00;100863.41;6051067;23;20037;-93
2022/12/31 09:42:35;;;;;;;2.45;2.33;;;;;;;7.74;100.00;100874.03;6051268;23;20026;-93
2022/12/31 09:45:18;;;;;;;1.98;1.88;;;;;;;7.77;100.00;100860.22;6098919;23;20014;-94
2022/12/31 09:47:59;;;;;;;3.35;3.05;;;;;;;7.90;100.00;100852.28;6073823;23;20029;-94
2022/12/31 09:50:27;;;;;;;4.50;1.70;;;;;;;8.06;100.00;100860.94;6099528;23;20047;-94
2022/12/31 09:53:12;;;;;;;2.13;2.00;;;;;;;8.17;100.00;100847.84;6074108;23;20053;-93
2022/12/31 09:56:16;;;;;;;1.15;1.02;;;;;;;8.37;100.00;100848.97;6076142;23;20029;-93
2022/12/31 09:59:00;;;;;;;;;;;;;;;8.39;100.00;100846.63;6052859;23;20030;-94
2022/12/31 10:01:53;;;;;;;3.00;2.75;;;;;;;8.51;100.00;100839.03;6102201;23;19913;-94
2022/12/31 10:04:38;;;;;;;4.13;2.40;;;;;;;8.67;100.00;100842.13;6081525;23;20018;-93
2022/12/31 10:07:21;;;;;;;3.72;1.70;;;;;;;8.68;100.00;100840.94;6053814;23;20366;-94
2022/12/31 10:10:12;;;;;;;5.63;2.60;;;;;;;8.66;100.00;100837.75;6075109;23;20332;-94
2022/12/31 10:12:56;;;;;;;1.42;1.33;;;;;;;8.74;100.00;100845.63;6051527;23;20025;-95
2022/12/31 10:15:58;;;;;;;1.13;1.08;;;;;;;8.66;100.00;100841.31;6073773;23;20092;-94
2022/12/31 10:18:46;;;;;;;0.82;0.77;;;;;;;8.80;100.00;100837.69;6074865;23;20017;-94
2022/12/31 10:21:17;;;;;;;2.40;2.15;;;;;;;8.73;100.00;100833.00;6075807;23;20459;-94
2022/12/31 10:24:40;;;;;;;2.22;2.03;;;;;;;8.80;100.00;100821.09;6075221;23;20037;-94
2022/12/31 10:27:17;;;;;;;1.52;1.42;;;;;;;9.05;100.00;100827.22;5909870;24;20053;-94
2022/12/31 10:29:47;;;;;;;1.70;1.60;;;;;;;9.29;100.00;100820.69;6074034;23;20072;-94
2022/12/31 10:32:30;;;;;;;2.30;2.10;;;;;;;9.44;100.00;100826.88;6052144;23;20021;-94
2022/12/31 10:35:08;;;;;;;;;;;;;;;9.54;100.00;100812.16;6076176;23;20026;-95
2022/12/31 10:37:49;;;;;;;4.90;1.30;;;;;;;9.71;100.00;100790.97;6074790;23;20353;-95
2022/12/31 10:40:38;;;;;;;16.02;2.00;;;;;;;9.98;100.00;100816.03;6075362;23;20010;-94
2022/12/31 10:43:25;;;;;;;2.20;1.95;;;;;;;10.12;100.00;100816.63;6076793;23;20021;-94
2022/12/31 10:46:24;;;;;;;1.65;1.40;;;;;;;10.03;100.00;100808.00;6052400;23;20036;-95
2022/12/31 10:49:13;;;;;;;4.55;2.03;;;;;;;10.20;100.00;100807.06;6054843;23;20025;-94
2022/12/31 10:51:56;;;;;;;1.10;1.08;;;;;;;10.16;100.00;100798.00;6052404;23;20032;-95
2022/12/31 10:54:59;;;;;;;1.67;1.58;;;;;;;10.41;100.00;100811.53;6077321;23;20018;-94
2022/12/31 10:57:53;;;;;;;0.77;0.77;;;;;;;10.45;100.00;100805.94;6076612;23;20188;-95
2022/12/31 11:00:20;;;;;;;1.20;1.15;;;;;;;10.51;100.00;100815.38;6077256;23;20389;-94
2022/12/31 11:03:12;;;;;;;3.33;2.03;;;;;;;10.43;100.00;100808.34;6053812;23;20013;-96
2022/12/31 11:06:26;;;;;;;0.90;0.88;;;;;;;10.61;100.00;100819.97;6077509;23;20295;-94
2022/12/31 11:09:03;;;;;;;1.35;1.25;;;;;;;10.60;100.00;100818.38;5976300;23;20024;-93
2022/12/31 11:11:54;;;;;;;2.05;1.95;;;;;;;10.68;100.00;100815.09;6078033;23;20056;-94
2022/12/31 11:14:23;;;;;;;0.68;0.68;;;;;;;10.83;100.00;100815.69;6052992;23;20017;-94
2022/12/31 11:17:27;;;;;;;2.30;2.10;;;;;;;10.93;100.00;100808.38;6076632;23;20076;-94
2022/12/31 11:20:31;;;;;;;3.75;2.45;;;;;;;10.97;100.00;100809.09;5961664;23;20021;-94
2022/12/31 11:23:23;;;;;;;2.47;1.58;;;;;;;11.07;100.00;100802.59;6054434;23;20018;-95
2022/12/31 11:26:06;;;;;;;0.68;0.68;;;;;;;11.29;100.00;100784.38;6060307;23;20018;-94
2022/12/31 11:28:41;;;;;;;1.80;1.38;;;;;;;11.21;100.00;100786.47;6053452;23;20026;-95
2022/12/31 11:31:25;;;;;;;2.95;1.15;;;;;;;11.29;100.00;100803.81;6077151;23;20085;-95
2022/12/31 11:33:54;;;;;;;1.25;1.05;;;;;;;11.40;100.00;100800.84;6053045;23;20089;-95
2022/12/31 11:36:42;;;;;;;2.72;1.95;;;;;;;11.56;100.00;100796.19;6101272;23;20009;-94
2022/12/31 11:39:26;;;;;;;2.80;1.55;;;;;;;11.62;100.00;100802.03;6102432;23;20036;-94
2022/12/31 11:41:52;;;;;;;;;;;;;;;11.58;100.00;100798.53;6077444;23;20018;-93
2022/12/31 11:44:53;;;;;;;1.38;1.27;;;;;;;11.61;100.00;100797.66;6051840;23;19923;-93
2022/12/31 11:47:54;;;;;;;3.35;2.85;;;;;;;11.47;100.00;100748.72;6098454;23;20022;-94
2022/12/31 11:50:28;;;;;;;1.45;1.35;;;;;;;11.51;100.00;100748.66;6075654;23;20022;-94
2022/12/31 11:53:06;;;;;;;1.08;0.75;;;;;;;11.60;100.00;100737.75;6078698;23;20020;-93
2022/12/31 11:55:57;;;;;;;1.23;1.17;;;;;;;11.99;100.00;100790.59;6080271;23;20092;-95
2022/12/31 11:58:27;;;;;;;1.30;1.20;;;;;;;11.76;100.00;100731.53;6085637;23;20026;-95
2022/12/31 12:00:53;;;;;;;1.40;1.13;;;;;;;12.23;100.00;100776.59;6061378;23;20009;-96
2022/12/31 12:03:19;;;;;;;1.15;1.05;;;;;;;12.23;100.00;100759.91;6083658;23;20017;-95
2022/12/31 12:05:45;;;;;;;1.67;0.98;;;;;;;12.08;100.00;100731.63;6058306;23;20018;-96
2022/12/31 12:08:11;;;;;;;0.80;0.80;;;;;;;12.40;100.00;100740.03;6056702;23;20026;-96
2022/12/31 12:10:46;;;;;;;0.57;0.55;;;;;;;12.85;100.00;100762.44;6030532;23;20019;-95
2022/12/31 12:13:23;;;;;;;1.50;0.82;;;;;;;12.89;100.00;100735.28;6028104;23;20045;-94
2022/12/31 12:15:57;;;;;;;1.77;1.48;;;;;;;13.11;100.00;100729.97;6030924;23;20507;-94
2022/12/31 12:18:28;;;;;;;;;;;;;;;13.59;100.00;100782.03;6055500;23;20026;-96
2022/12/31 12:21:06;;;;;;;3.15;1.88;;;;;;;13.57;100.00;100723.16;6054005;23;19913;-94
2022/12/31 12:23:32;;;;;;;1.17;0.95;;;;;;;13.57;100.00;100722.38;6033242;23;20029;-95
2022/12/31 12:25:58;;;;;;;7.65;1.80;;;;;;;13.98;100.00;100742.69;6057342;23;20019;-94
2022/12/31 12:28:26;;;;;;;3.05;1.05;;;;;;;13.86;100.00;100735.06;6033675;23;20026;-94
2022/12/31 12:30:57;;;;;;;0.93;0.70;;;;;;;14.05;100.00;100775.16;6039858;23;20010;-95
2022/12/31 12:33:23;;;;;;;1.05;0.77;;;;;;;13.74;100.00;100735.81;6061521;23;20470;-96
2022/12/31 12:35:50;;;;;;;1.15;1.08;;;;;;;14.04;100.00;100759.63;6035700;23;20015;-95
2022/12/31 12:38:20;;;;;;;0.85;0.68;;;;;;;13.86;100.00;100723.13;6034353;23;20029;-95
2022/12/31 12:40:57;;;;;;;0.82;0.60;;;;;;;14.24;100.00;100767.81;6059364;23;20018;-96
2022/12/31 12:43:27;;;;;;;0.65;0.65;;;;;;;14.26;100.00;100752.22;6033288;23;20018;-95
2022/12/31 12:45:56;;;;;;;0.45;0.45;;;;;;;14.16;100.00;100730.97;6033813;23;20114;-95
2022/12/31 12:48:42;;;;;;;2.65;1.75;;;;;;;14.25;100.00;100728.31;6033520;23;20018;-96
2022/12/31 12:51:24;;;;;;;1.60;1.13;;;;;;;14.24;100.00;100720.38;6053499;23;20017;-95
2022/12/31 12:53:59;;;;;;;0.63;0.60;;;;;;;14.23;100.00;100718.84;6028800;23;20014;-96
2022/12/31 12:56:29;;;;;;;1.65;1.33;;;;;;;14.61;100.00;100761.50;6030200;23;20022;-95
2022/12/31 12:59:10;;;;;;;3.28;3.05;;;;;;;14.34;100.00;100730.44;6029807;23;20014;-95
2022/12/31 13:01:50;;;;;;;1.08;0.65;;;;;;;14.54;100.00;100760.97;6052612;23;20077;-96
2022/12/31 13:04:25;;;;;;;4.82;2.22;;;;;;;14.43;100.00;100733.38;6024892;23;20014;-96
2022/12/31 13:07:28;;;;;;;1.23;1.10;;;;;;;15.05;100.00;100778.44;6045224;23;20097;-95
2022/12/31 13:10:07;;;;;;;2.05;1.15;;;;;;;15.28;100.00;100775.28;6044879;23;20018;-96
2022/12/31 13:12:40;;;;;;;0.52;0.52;;;;;;;15.26;100.00;100763.75;6020385;23;20029;-95
2022/12/31 13:15:15;;;;;;;1.05;0.55;;;;;;;15.39;100.00;100770.88;6044957;23;20014;-95
2022/12/31 13:17:53;;;;;;;1.15;0.90;;;;;;;15.48;100.00;100778.56;6044537;23;20038;-95
2022/12/31 13:20:42;;;;;;;0.30;0.30;;;;;;;15.43;100.00;100769.97;6043783;23;20439;-95
2022/12/31 13:23:19;;;;;;;1.83;1.70;;;;;;;15.46;100.00;100780.25;6069115;23;20074;-96
2022/12/31 13:26:11;;;;;;;1.13;0.90;;;;;;;15.37;100.00;100778.94;6069880;23;20010;-95
2022/12/31 13:28:41;;;;;;;0.10;0.10;;;;;;;15.44;100.00;100786.31;6068780;23;20019;-95
2022/12/31 13:31:13;;;;;;;1.67;1.40;;;;;;;15.43;100.00;100784.72;6022497;23;20014;-94
2022/12/31 13:33:47;;;;;;;0.38;0.38;;;;;;;15.42;100.00;100780.38;6021488;23;20078;-96
2022/12/31 13:36:15;;;;;;;2.63;1.35;;;;;;;15.49;100.00;100790.53;6022595;23;20073;-94
2022/12/31 13:38:46;;;;;;;1.20;1.13;;;;;;;15.63;100.00;100804.03;6045886;23;20014;-95
2022/12/31 13:41:16;;;;;;;0.38;0.32;;;;;;;15.69;100.00;100794.59;6020794;23;20399;-94
2022/12/31 13:43:52;;;;;;;2.67;1.25;;;;;;;15.70;100.00;100787.78;6044973;23;20212;-95
2022/12/31 13:46:41;;;;;;;0.47;0.47;;;;;;;15.77;100.00;100779.13;6043863;23;20010;-93
2022/12/31 13:49:36;;;;;;;0.32;0.32;;;;;;;15.93;100.00;100802.56;6022066;23;20514;-95
2022/12/31 13:52:23;;;;;;;1.17;0.93;;;;;;;15.85;100.00;100791.63;6068563;23;20010;-93
2022/12/31 13:54:57;;;;;;;0.70;0.65;;;;;;;15.48;100.00;100789.75;6042152;23;20026;-95
2022/12/31 13:57:41;;;;;;;1.00;0.88;;;;;;;15.32;100.00;100775.94;6041612;23;20026;-95
2022/12/31 14:00:23;;;;;;;1.02;0.68;;;;;;;15.10;100.00;100756.31;6041190;23;20021;-94
2022/12/31 14:03:09;;;;;;;0.32;0.32;;;;;;;15.19;100.00;100791.94;6065299;23;20477;-95
2022/12/31 14:05:42;;;;;;;1.10;1.00;;;;;;;15.09;100.00;100793.88;6091208;23;20018;-95
2022/12/31 14:08:08;;;;;;;1.75;1.50;;;;;;;15.02;100.00;100782.94;6043005;23;20094;-95
2022/12/31 14:10:49;;;;;;;0.17;0.17;;;;;;;14.82;100.00;100776.81;6017871;23;20355;-94
2022/12/31 14:13:35;;;;;;;1.75;1.60;;;;;;;14.67;100.00;100782.06;6067476;23;20348;-94